Sylmar, CA (91342)

2:48 AM PST on February 09, 2016 (GMT -0800)
Sylmar Flight Park | | Change Station
CLOSE
Current Station
Personal Weather Station
Location: California, CA
Elevation: 1368 ft
Nearby Weather Stations
Active Advisory: Wind Advisory Active Notice: Record Report

Elev 1368 ft 34.32 °N, 118.41 °W | Updated 4 seconds ago

Clear
Clear
74.5 °F
Feels Like 74 °F
N
12.1
Wind Variable Wind from NE
Gusts 22.1 mph

Today
High -- | Low -- °F
--% Chance of Precip.
Yesterday
High -- | Low -- °F
Precip. -- in
Pressure 30.12 in
Visibility 10.0 miles
Clouds Clear
Heat Index 74 °F
Dew Point 6 °F
Humidity 7%
Rainfall 0.00 in
Snow Depth Not available.
6:44 AM 5:31 PM
New Moon, 1% visible
METAR KVNY 090951Z 00000KT 10SM CLR 14/M03 A3014 RMK AO2 SLP198 T01441028
Pressure 30.12 in
Visibility 10.0 miles
Clouds Clear
Heat Index 74 °F
Dew Point 6 °F
Humidity 7%
Rainfall 0.00 in
Snow Depth Not available.
6:44 AM 5:31 PM
New Moon, 1% visible
METAR KVNY 090951Z 00000KT 10SM CLR 14/M03 A3014 RMK AO2 SLP198 T01441028

10-Day Weather Forecast

Almanac

Astronomy

Feb. 09, 2016 Rise Set
Actual Time
Civil Twilight
Nautical Twilight
Astronomical Twilight
Moon
Length of Visible Light
Length of Day
Tomorrow will be .
, % of the Moon is Illuminated

Today's Extremes

State Highs State Lows

Community

WunderPhotos

Upload Photos

1,891,565 photos uploaded!

WunderBlog® & News

Nearby

Air Quality

  Air Quality AQ Index Pollutant
Not available.

Snow Depth

Station Depth Elevation

Earthquake Activity

City Distance Mag. Time & Date
Minimum magnitude displayed is 2.5.

Coastal Water Temperatures

Place Temperature

Stations

Nearby Weather Stations

Station Location Temp. Windchill Dew Point Humidity Wind Precip. Elev Updated Type
                   

Watches & Warnings

Wind Advisory
Issued: 1:34 AM PST Feb. 9, 2016 – National Weather Service

... Wind Advisory remains in effect until 3 PM PST this
afternoon...

* winds and timing... northeast winds 15 to 25 mph with gusts 35
mph will prevail through mid afternoon.

* Impacts... gusty winds will make driving difficult... especially
for drivers of high profile vehicles. Winds this strong will
be capable of causing downed trees and cause power outages.

Precautionary/preparedness actions...

When driving... use extra caution. Be prepared for sudden gusty
cross winds and watch for potential downed trees.



Asr